Maryville, Tennessee
Current Conditions -  °F | °C
As of 12:53 AM on Wednesday 28 Jan 2015 (Local Time) from KTYS Reporting Station
Overcast Overcast  
Wind Chill: 21°   Ceiling: 3400
Heat Index: 31°   Visibility: 10mi
Dew Point: 21°   Wind: 13mph
Humidity: 67%   Direction: 10°N
Pressure: 30.18"   Gusts: NA
Location:  35.75°N, 83.97°W
Report Text: KTYS 280553Z 01011KT 10SM OVC034 M01/M06 A3018 RMK AO2 SLP227 60000 T10061061 10017 21006 51008
Loading
Personal Weather Stations






























Interactive Weather Map New forecast layout! Learn more

10-Day Weather Forecast

Advertisements
Track Severe Weather on mobile